Terminal Aerodrome Forecast
Issued by NWS Atlanta, GA

Current Version | Previous Version | Text Only | Print | Product List | Glossary On
Versions: 1 2 3 4 5 6 7 8 9 10 11 12 13 14 15 16 17 18 19 20 21 22 23 24 25 26 27 28 29 30 31 32 33 34 35 36 37
000
FTUS42 KFFC 211700
TAFAHN
TAF
KAHN 211731Z 2118/2218 27010KT P6SM SCT050
     FM220000 26004KT P6SM SCT100
     FM220600 27005KT P6SM SCT025 SCT050
     FM221000 31004KT P6SM SCT150
     FM221600 03006KT P6SM FEW150=

USA.gov is the U.S. government's official web portal to all federal, state and local government web resources and services.